Time;durP1;ratioP1;P1;durP2;ratioP2;P2;SDS_P1;SDS_P2;PMS_P1;PMS_P2;Temp;Humidity;BMP_temperature;BMP_pressure;BME280_temperature;BME280_humidity;BME280_pressure;Samples;Min_cycle;Max_cycle;Signal;HPM_P1;HPM_P2
2021/04/26 00:00:19;;;;;;;4.28;2.70;;;8.60;63.80;;;;;;5050033;28;20412;-70
2021/04/26 00:02:44;;;;;;;6.22;2.90;;;8.50;64.10;;;;;;5031460;28;20069;-69
2021/04/26 00:05:13;;;;;;;5.88;2.65;;;8.40;64.30;;;;;;5049968;28;20669;-69
2021/04/26 00:07:38;;;;;;;7.25;2.83;;;8.40;64.60;;;;;;5049571;28;20044;-71
2021/04/26 00:10:05;;;;;;;3.20;2.20;;;8.40;64.70;;;;;;5049650;28;20032;-70
2021/04/26 00:12:31;;;;;;;5.38;2.42;;;8.40;64.80;;;;;;5031880;28;20057;-70
2021/04/26 00:14:56;;;;;;;5.82;2.53;;;8.40;64.60;;;;;;5031234;28;20076;-70
2021/04/26 00:17:22;;;;;;;7.68;2.42;;;8.50;64.60;;;;;;5049203;28;20045;-70
2021/04/26 00:19:48;;;;;;;3.55;2.35;;;8.40;64.80;;;;;;5049083;28;20027;-70
2021/04/26 00:22:13;;;;;;;9.50;2.42;;;8.50;64.90;;;;;;5031505;28;20033;-70
2021/04/26 00:24:39;;;;;;;6.95;2.50;;;8.50;64.90;;;;;;5048710;28;20451;-71
2021/04/26 00:27:06;;;;;;;5.95;2.92;;;8.50;65.00;;;;;;5049999;28;20088;-71
2021/04/26 00:29:32;;;;;;;5.47;2.15;;;8.30;65.30;;;;;;5049417;28;20462;-71
2021/04/26 00:31:58;;;;;;;11.98;2.42;;;8.30;65.50;;;;;;5048822;28;20469;-71
2021/04/26 00:34:23;;;;;;;6.60;2.65;;;8.20;65.90;;;;;;5032065;28;20036;-70
2021/04/26 00:36:49;;;;;;;5.10;2.33;;;8.30;65.60;;;;;;5048878;28;20414;-70
2021/04/26 00:39:15;;;;;;;3.50;2.05;;;8.30;65.90;;;;;;5031878;28;20457;-71
2021/04/26 00:41:40;;;;;;;5.00;2.10;;;8.40;65.70;;;;;;5031164;28;20128;-70
2021/04/26 00:44:06;;;;;;;4.60;2.28;;;8.30;65.70;;;;;;5049239;28;20064;-70
2021/04/26 00:46:31;;;;;;;6.50;2.60;;;8.40;65.60;;;;;;5050134;28;20374;-70
2021/04/26 00:48:57;;;;;;;3.63;2.15;;;8.40;65.20;;;;;;5034431;28;20032;-70
2021/04/26 00:51:23;;;;;;;7.78;2.47;;;8.40;65.40;;;;;;5052905;28;20519;-70
2021/04/26 00:53:49;;;;;;;5.57;2.70;;;8.20;65.70;;;;;;5034650;28;20470;-70
2021/04/26 00:56:15;;;;;;;4.25;2.67;;;8.30;65.70;;;;;;5034587;28;20028;-70
2021/04/26 00:58:40;;;;;;;6.05;2.88;;;8.20;66.20;;;;;;5034296;28;20474;-70
2021/04/26 01:01:06;;;;;;;3.55;2.30;;;8.10;66.30;;;;;;5035028;28;20518;-69
2021/04/26 01:03:32;;;;;;;2.65;2.25;;;8.10;66.70;;;;;;5034680;28;20039;-72
2021/04/26 01:05:57;;;;;;;4.50;2.92;;;8.10;66.50;;;;;;5052367;28;20021;-70
2021/04/26 01:08:23;;;;;;;7.25;3.28;;;8.10;66.40;;;;;;5034927;28;20035;-70
2021/04/26 01:10:50;;;;;;;5.72;2.78;;;8.10;66.40;;;;;;5033863;28;20033;-70
2021/04/26 01:13:24;;;;;;;6.70;2.97;;;8.00;66.40;;;;;;5034778;28;20026;-69
2021/04/26 01:16:12;;;;;;;5.60;3.22;;;8.00;66.80;;;;;;5051889;28;20194;-69
2021/04/26 01:19:11;;;;;;;6.25;2.20;;;7.90;66.90;;;;;;5052524;28;20029;-70
2021/04/26 01:22:14;;;;;;;7.50;2.50;;;7.90;66.70;;;;;;5052380;28;20079;-71
2021/04/26 01:24:58;;;;;;;4.50;2.10;;;7.90;67.00;;;;;;5033777;28;20116;-71
2021/04/26 01:27:38;;;;;;;6.68;2.28;;;7.90;67.00;;;;;;5034263;28;20040;-70
2021/04/26 01:30:20;;;;;;;5.18;2.03;;;7.90;66.70;;;;;;5034322;28;20029;-70
2021/04/26 01:32:51;;;;;;;9.60;2.97;;;7.80;66.90;;;;;;5033724;28;20044;-71
2021/04/26 01:35:19;;;;;;;5.30;2.88;;;7.80;67.00;;;;;;5051875;28;20490;-70
2021/04/26 01:37:49;;;;;;;4.03;2.20;;;7.80;66.90;;;;;;5033666;28;20462;-70
2021/04/26 01:40:17;;;;;;;3.95;2.40;;;7.90;67.00;;;;;;5052548;28;20025;-70
2021/04/26 01:42:46;;;;;;;8.15;3.60;;;7.80;67.00;;;;;;5033334;28;20420;-70
2021/04/26 01:45:16;;;;;;;9.80;2.17;;;7.70;67.10;;;;;;5052367;28;20108;-70
2021/04/26 01:47:42;;;;;;;8.77;3.28;;;7.70;67.40;;;;;;5033379;28;20040;-70
2021/04/26 01:50:10;;;;;;;3.78;2.10;;;7.60;67.50;;;;;;5033988;28;20483;-71
2021/04/26 01:52:37;;;;;;;4.10;2.92;;;7.60;67.90;;;;;;5052008;28;20036;-71
2021/04/26 01:55:05;;;;;;;4.97;2.55;;;7.70;67.60;;;;;;5033154;28;20033;-71
2021/04/26 01:57:31;;;;;;;4.88;2.47;;;7.70;67.60;;;;;;5033317;28;20115;-71
2021/04/26 02:00:01;;;;;;;7.88;2.50;;;7.60;67.60;;;;;;5051359;28;20041;-70
2021/04/26 02:02:28;;;;;;;5.53;2.35;;;7.60;67.60;;;;;;5033297;28;20028;-70
2021/04/26 02:04:56;;;;;;;3.53;2.05;;;7.50;67.70;;;;;;5050549;28;20131;-70
2021/04/26 02:07:22;;;;;;;7.68;3.20;;;7.60;67.40;;;;;;5032525;28;20095;-70
2021/04/26 02:09:50;;;;;;;4.07;2.40;;;7.50;67.70;;;;;;5050154;28;20139;-70
2021/04/26 02:12:16;;;;;;;4.85;2.75;;;7.50;67.50;;;;;;5032392;28;20486;-70
2021/04/26 02:14:43;;;;;;;5.90;3.03;;;7.50;67.80;;;;;;5050643;28;20033;-70
2021/04/26 02:17:09;;;;;;;5.07;2.20;;;7.50;67.70;;;;;;5059265;28;20044;-70
2021/04/26 02:19:35;;;;;;;7.18;1.92;;;7.50;67.20;;;;;;5071196;28;20039;-70
2021/04/26 02:22:01;;;;;;;7.53;2.40;;;7.40;67.50;;;;;;5070396;28;20219;-70
2021/04/26 02:24:27;;;;;;;7.47;2.28;;;7.40;67.60;;;;;;5069600;28;20025;-69
2021/04/26 02:26:52;;;;;;;8.55;3.10;;;7.40;67.80;;;;;;5068913;28;20377;-70
2021/04/26 02:29:18;;;;;;;2.63;2.20;;;7.30;67.50;;;;;;5069171;28;20079;-70
2021/04/26 02:31:49;;;;;;;6.43;2.42;;;7.20;68.10;;;;;;5069855;28;20044;-71
2021/04/26 02:34:26;;;;;;;5.65;2.50;;;7.30;67.80;;;;;;5069444;28;20048;-71
2021/04/26 02:37:00;;;;;;;7.88;2.30;;;7.20;68.60;;;;;;5068954;28;20052;-70
2021/04/26 02:39:28;;;;;;;12.35;2.05;;;7.20;67.80;;;;;;5069545;28;20021;-70
2021/04/26 02:41:54;;;;;;;4.10;2.10;;;7.30;68.00;;;;;;5069946;28;20036;-70
2021/04/26 02:44:26;;;;;;;7.10;2.28;;;7.10;68.30;;;;;;5071053;28;20063;-69
2021/04/26 02:47:16;;;;;;;6.55;2.67;;;7.10;68.00;;;;;;5068704;28;20430;-70
2021/04/26 02:49:44;;;;;;;4.80;2.33;;;7.10;68.20;;;;;;5057319;28;20137;-71
2021/04/26 02:52:17;;;;;;;5.00;2.03;;;7.10;67.70;;;;;;5070441;28;20039;-71
2021/04/26 02:54:44;;;;;;;4.70;1.90;;;7.20;67.70;;;;;;5068955;28;20216;-70
2021/04/26 02:57:10;;;;;;;3.20;1.98;;;7.00;68.30;;;;;;5070603;28;20035;-71
2021/04/26 02:59:38;;;;;;;6.53;3.05;;;7.00;67.90;;;;;;5068967;28;20465;-71
2021/04/26 03:02:05;;;;;;;8.27;2.88;;;7.00;68.30;;;;;;5068530;28;20338;-71
2021/04/26 03:04:33;;;;;;;6.88;1.85;;;6.90;68.20;;;;;;5070862;28;20047;-71
2021/04/26 03:07:01;;;;;;;3.95;2.13;;;6.80;68.30;;;;;;5069710;28;20024;-70
2021/04/26 03:09:32;;;;;;;5.70;2.17;;;6.90;68.30;;;;;;5068540;28;20050;-70
2021/04/26 03:11:59;;;;;;;6.60;2.10;;;6.90;68.10;;;;;;5068369;28;20063;-70
2021/04/26 03:14:25;;;;;;;6.22;2.22;;;6.80;68.30;;;;;;5068753;28;20415;-70
2021/04/26 03:16:52;;;;;;;5.20;2.35;;;6.90;68.20;;;;;;5068013;28;20051;-71
2021/04/26 03:19:19;;;;;;;4.25;2.08;;;6.80;68.00;;;;;;5069371;28;20077;-69
2021/04/26 03:21:47;;;;;;;5.15;2.42;;;6.80;68.10;;;;;;5069645;28;20119;-71
2021/04/26 03:24:19;;;;;;;5.40;2.22;;;6.80;68.00;;;;;;5069311;28;20036;-70
2021/04/26 03:26:47;;;;;;;7.85;3.10;;;6.90;67.60;;;;;;5068730;28;20441;-70
2021/04/26 03:29:19;;;;;;;3.92;2.20;;;6.80;67.80;;;;;;5068969;28;20397;-69
2021/04/26 03:31:46;;;;;;;10.80;2.22;;;6.80;67.30;;;;;;5070283;28;20055;-70
2021/04/26 03:34:12;;;;;;;8.07;2.30;;;6.80;67.80;;;;;;5070414;28;20036;-70
2021/04/26 03:36:39;;;;;;;7.97;3.10;;;6.70;68.10;;;;;;5068867;28;20032;-70
2021/04/26 03:39:08;;;;;;;6.15;2.88;;;6.70;68.00;;;;;;5069226;28;20025;-71
2021/04/26 03:41:34;;;;;;;7.35;2.58;;;6.70;67.90;;;;;;5068495;28;20045;-70
2021/04/26 03:43:59;;;;;;;6.07;2.10;;;6.60;68.10;;;;;;5069384;28;20385;-70
2021/04/26 03:46:25;;;;;;;9.18;2.58;;;6.50;68.30;;;;;;5068439;28;20101;-70
2021/04/26 03:48:51;;;;;;;6.03;2.58;;;6.60;68.30;;;;;;5067743;28;20025;-70
2021/04/26 03:51:16;;;;;;;9.10;2.63;;;6.50;68.30;;;;;;5069536;28;20170;-69
2021/04/26 03:53:42;;;;;;;6.78;2.58;;;6.50;68.50;;;;;;5069888;28;20025;-72
2021/04/26 03:56:08;;;;;;;5.50;2.22;;;6.40;68.50;;;;;;5068943;28;20070;-70
2021/04/26 03:58:33;;;;;;;3.15;2.00;;;6.40;68.70;;;;;;5069268;28;20020;-71
2021/04/26 04:00:59;;;;;;;16.75;3.13;;;6.40;68.70;;;;;;5068902;28;20048;-71
2021/04/26 04:03:24;;;;;;;8.02;2.25;;;6.40;68.60;;;;;;5069462;28;20024;-70
2021/04/26 04:05:50;;;;;;;5.88;2.42;;;6.40;68.50;;;;;;5069181;28;20104;-71
2021/04/26 04:08:16;;;;;;;4.78;2.30;;;6.50;68.30;;;;;;5069402;28;20058;-72
2021/04/26 04:10:41;;;;;;;6.28;2.90;;;6.40;68.30;;;;;;5068350;28;20090;-71
2021/04/26 04:13:07;;;;;;;4.05;2.30;;;6.30;68.50;;;;;;5068928;28;20295;-72
2021/04/26 04:15:33;;;;;;;8.63;2.33;;;6.30;69.40;;;;;;5067492;28;20033;-69
2021/04/26 04:17:58;;;;;;;15.30;3.08;;;6.10;69.20;;;;;;5048886;28;20025;-71
2021/04/26 04:20:24;;;;;;;6.28;2.75;;;6.20;69.10;;;;;;5031756;28;20091;-70
2021/04/26 04:22:50;;;;;;;4.18;2.00;;;6.30;68.70;;;;;;5052627;28;20024;-71
2021/04/26 04:25:16;;;;;;;4.72;2.25;;;6.20;68.60;;;;;;5035342;28;20029;-71
2021/04/26 04:27:44;;;;;;;5.88;2.20;;;6.20;68.70;;;;;;5053027;28;20052;-71
2021/04/26 04:30:11;;;;;;;6.63;2.22;;;6.20;68.40;;;;;;5052768;28;20041;-72
2021/04/26 04:32:37;;;;;;;5.03;2.47;;;6.20;68.70;;;;;;5035032;28;20510;-71
2021/04/26 04:35:04;;;;;;;8.15;2.80;;;6.20;68.60;;;;;;5034420;28;20171;-73
2021/04/26 04:37:29;;;;;;;6.10;1.95;;;6.20;68.80;;;;;;5034936;28;20478;-72
2021/04/26 04:39:55;;;;;;;7.75;1.80;;;6.40;68.40;;;;;;5052085;28;20055;-71
2021/04/26 04:42:21;;;;;;;5.35;2.58;;;6.70;67.50;;;;;;5053038;28;20035;-73
2021/04/26 04:44:46;;;;;;;6.35;2.20;;;7.10;66.10;;;;;;5052760;28;20143;-71
2021/04/26 04:47:12;;;;;;;7.70;2.30;;;7.20;65.50;;;;;;5034215;28;20394;-72
2021/04/26 04:49:38;;;;;;;8.65;1.98;;;6.90;65.50;;;;;;5035120;28;20446;-71
2021/04/26 04:52:05;;;;;;;6.70;2.45;;;6.70;66.10;;;;;;5052307;28;20449;-73
2021/04/26 04:54:31;;;;;;;2.38;1.70;;;6.60;66.60;;;;;;5052870;28;20548;-71
2021/04/26 04:56:57;;;;;;;5.15;2.08;;;6.50;66.60;;;;;;5034066;28;20025;-71
2021/04/26 04:59:23;;;;;;;4.05;2.13;;;6.60;67.00;;;;;;5052740;28;20478;-72
2021/04/26 05:01:48;;;;;;;8.73;2.13;;;6.50;66.80;;;;;;5052886;28;20116;-71
2021/04/26 05:04:14;;;;;;;6.75;2.42;;;6.60;67.10;;;;;;5051961;28;20489;-71
2021/04/26 05:06:40;;;;;;;8.18;2.40;;;6.60;66.90;;;;;;5053060;28;20065;-71
2021/04/26 05:09:07;;;;;;;7.85;2.15;;;6.50;66.80;;;;;;5034528;28;20021;-71
2021/04/26 05:11:32;;;;;;;4.32;1.77;;;6.40;67.40;;;;;;5052826;28;20077;-72
2021/04/26 05:13:59;;;;;;;7.60;2.60;;;6.60;66.80;;;;;;5034205;28;20025;-72
2021/04/26 05:16:27;;;;;;;12.88;2.58;;;6.70;66.80;;;;;;5048836;28;20520;-71
2021/04/26 05:18:52;;;;;;;6.47;2.88;;;6.60;66.50;;;;;;5070996;28;20040;-71
2021/04/26 05:21:18;;;;;;;6.93;2.22;;;6.60;66.10;;;;;;5070931;28;20028;-72
2021/04/26 05:23:44;;;;;;;8.90;2.58;;;6.70;66.30;;;;;;5072556;28;20436;-71
2021/04/26 05:26:10;;;;;;;6.72;2.88;;;6.70;66.00;;;;;;5071918;28;20414;-72
2021/04/26 05:28:35;;;;;;;3.50;1.58;;;6.70;66.00;;;;;;5072192;28;20181;-71
2021/04/26 05:31:01;;;;;;;4.47;2.42;;;6.80;65.60;;;;;;5070404;28;20043;-71
2021/04/26 05:33:27;;;;;;;7.00;2.08;;;6.80;65.90;;;;;;5071570;28;20051;-71
2021/04/26 05:35:52;;;;;;;6.50;1.90;;;6.90;65.80;;;;;;5071923;28;20424;-71
2021/04/26 05:38:18;;;;;;;7.35;2.78;;;6.80;65.80;;;;;;5072998;28;20114;-72
2021/04/26 05:40:48;;;;;;;8.38;2.63;;;6.80;65.60;;;;;;5072163;28;20035;-70
2021/04/26 05:43:15;;;;;;;7.28;2.38;;;6.90;65.40;;;;;;5072509;28;20040;-71
2021/04/26 05:45:44;;;;;;;7.15;2.65;;;6.80;65.70;;;;;;5071666;28;20049;-71
2021/04/26 05:48:10;;;;;;;7.30;2.35;;;7.00;65.40;;;;;;5070401;28;20029;-70
2021/04/26 05:50:37;;;;;;;4.35;2.08;;;6.90;65.40;;;;;;5072323;28;20438;-70
2021/04/26 05:53:03;;;;;;;4.68;2.05;;;7.10;64.80;;;;;;5072649;28;20028;-71
2021/04/26 05:55:29;;;;;;;5.65;2.15;;;7.20;64.50;;;;;;5089746;28;20341;-71
2021/04/26 05:57:54;;;;;;;7.18;2.17;;;7.40;64.30;;;;;;5088646;28;20081;-71
2021/04/26 06:00:20;;;;;;;3.70;2.00;;;7.40;63.90;;;;;;5089588;28;20051;-70
2021/04/26 06:02:46;;;;;;;10.43;2.40;;;7.50;63.70;;;;;;5090730;28;20521;-71
2021/04/26 06:05:13;;;;;;;9.50;1.92;;;7.50;63.40;;;;;;5088776;28;20712;-65
2021/04/26 06:07:39;;;;;;;3.10;1.83;;;8.00;79.80;;;;;;5091036;28;20036;-65
2021/04/26 06:10:05;;;;;;;3.08;1.48;;;8.50;64.00;;;;;;5089790;28;20086;-63
2021/04/26 06:12:33;;;;;;;6.18;2.13;;;8.70;61.80;;;;;;5090109;28;20519;-62
2021/04/26 06:14:58;;;;;;;5.45;2.35;;;9.00;61.60;;;;;;5087727;28;20507;-65
2021/04/26 06:17:24;;;;;;;6.00;1.88;;;9.10;59.90;;;;;;5088241;28;20156;-65
2021/04/26 06:19:50;;;;;;;4.68;2.10;;;9.40;59.80;;;;;;5089414;28;20036;-75
2021/04/26 06:22:15;;;;;;;2.25;1.40;;;9.40;58.00;;;;;;5090799;28;20465;-77
2021/04/26 06:24:41;;;;;;;14.25;2.80;;;9.00;58.90;;;;;;5092178;28;20036;-77
2021/04/26 06:27:07;;;;;;;5.43;1.70;;;9.10;59.20;;;;;;5091456;28;20028;-76
2021/04/26 06:29:32;;;;;;;8.68;2.25;;;9.10;58.70;;;;;;5091440;28;20385;-77
2021/04/26 06:31:59;;;;;;;7.07;1.90;;;9.00;57.80;;;;;;5089575;28;20028;-76
2021/04/26 06:34:25;;;;;;;6.63;1.67;;;8.90;58.00;;;;;;5091779;28;20082;-75
2021/04/26 06:36:51;;;;;;;7.03;2.00;;;9.00;58.30;;;;;;5090111;28;20467;-71
2021/04/26 06:39:16;;;;;;;12.52;2.72;;;9.20;57.90;;;;;;5089237;28;20035;-79
2021/04/26 06:41:42;;;;;;;7.55;2.72;;;9.40;57.70;;;;;;5090032;28;20432;-80
2021/04/26 06:44:08;;;;;;;8.73;2.03;;;9.40;57.30;;;;;;5089893;28;20032;-73
2021/04/26 06:46:33;;;;;;;3.25;1.50;;;9.50;57.70;;;;;;5089652;28;20441;-74
2021/04/26 06:49:01;;;;;;;11.07;2.28;;;9.40;57.60;;;;;;5089327;28;20169;-72
2021/04/26 06:51:27;;;;;;;10.45;2.78;;;9.60;57.80;;;;;;5090869;28;20027;-64
2021/04/26 06:53:53;;;;;;;14.65;2.13;;;10.40;76.30;;;;;;5089914;28;20497;-65
2021/04/26 06:56:18;;;;;;;6.55;1.95;;;11.50;69.60;;;;;;5090666;28;20152;-62
2021/04/26 06:58:44;;;;;;;4.13;1.33;;;12.20;69.60;;;;;;5091062;28;20393;-72
2021/04/26 07:01:10;;;;;;;5.75;1.58;;;11.90;57.10;;;;;;5088691;28;20172;-63
2021/04/26 07:03:36;;;;;;;1.90;1.55;;;11.20;55.20;;;;;;5089546;28;20028;-72
2021/04/26 07:06:02;;;;;;;3.58;1.92;;;10.90;54.90;;;;;;5088808;28;20032;-73
2021/04/26 07:08:28;;;;;;;7.45;1.60;;;10.80;55.90;;;;;;5089418;28;20028;-73
2021/04/26 07:10:53;;;;;;;5.13;1.38;;;10.90;55.70;;;;;;5089219;28;20042;-73
2021/04/26 07:13:19;;;;;;;4.00;1.73;;;11.00;55.30;;;;;;5088901;28;20031;-73
2021/04/26 07:15:45;;;;;;;3.90;1.38;;;11.20;55.40;;;;;;5086255;28;20044;-73
2021/04/26 07:18:12;;;;;;;3.72;0.95;;;11.30;54.60;;;;;;5052194;28;20063;-73
2021/04/26 07:20:38;;;;;;;4.65;2.20;;;11.10;55.50;;;;;;5052574;28;20025;-73
2021/04/26 07:23:04;;;;;;;4.95;1.70;;;11.40;55.30;;;;;;5069681;28;20173;-73
2021/04/26 07:25:29;;;;;;;3.80;1.50;;;11.50;54.90;;;;;;5070191;28;20119;-72
2021/04/26 07:27:55;;;;;;;4.30;1.15;;;11.80;54.60;;;;;;5070357;28;20055;-74
2021/04/26 07:30:22;;;;;;;1.55;1.00;;;11.90;54.00;;;;;;5051841;28;20029;-73
2021/04/26 07:32:48;;;;;;;2.90;1.20;;;12.00;53.10;;;;;;5052131;28;20077;-74
2021/04/26 07:35:14;;;;;;;3.88;1.27;;;12.10;52.20;;;;;;5051613;28;20032;-73
2021/04/26 07:37:41;;;;;;;2.08;1.38;;;11.70;52.40;;;;;;5052336;28;20108;-74
2021/04/26 07:40:09;;;;;;;7.30;1.30;;;11.60;53.30;;;;;;5069662;28;20027;-73
2021/04/26 07:42:35;;;;;;;4.97;0.98;;;12.10;52.80;;;;;;5070324;28;20063;-71
2021/04/26 07:45:01;;;;;;;1.90;1.10;;;12.40;51.80;;;;;;5069729;28;20115;-71
2021/04/26 07:47:27;;;;;;;4.82;1.02;;;12.70;50.40;;;;;;5069972;28;20070;-72
2021/04/26 07:49:53;;;;;;;2.97;1.20;;;12.80;50.50;;;;;;5070200;28;20052;-71
2021/04/26 07:52:18;;;;;;;2.80;1.08;;;12.80;49.00;;;;;;5051709;28;20137;-72
2021/04/26 07:54:44;;;;;;;2.00;1.00;;;12.20;48.20;;;;;;5052190;28;20389;-72
2021/04/26 07:57:10;;;;;;;6.53;1.25;;;12.60;48.80;;;;;;5072629;28;20055;-72
2021/04/26 07:59:35;;;;;;;2.47;1.23;;;12.70;48.00;;;;;;5053599;28;20028;-71
2021/04/26 08:02:01;;;;;;;5.30;1.30;;;12.70;48.10;;;;;;5053260;28;20111;-71
2021/04/26 08:04:27;;;;;;;2.40;0.90;;;13.10;46.50;;;;;;5072711;28;20102;-73
2021/04/26 08:06:53;;;;;;;5.15;1.30;;;12.90;47.30;;;;;;5072497;28;20094;-71
2021/04/26 08:09:18;;;;;;;2.30;0.90;;;12.50;47.40;;;;;;5053874;28;20492;-71
2021/04/26 08:11:44;;;;;;;2.20;1.02;;;12.10;47.60;;;;;;5052378;28;20111;-71
2021/04/26 08:14:10;;;;;;;2.70;0.70;;;12.30;48.10;;;;;;5054577;28;20119;-70
2021/04/26 08:16:36;;;;;;;4.47;0.75;;;12.90;47.10;;;;;;5074099;28;20056;-71
2021/04/26 08:19:02;;;;;;;15.63;3.28;;;13.00;46.30;;;;;;5055109;28;20028;-71
2021/04/26 08:21:28;;;;;;;1.98;0.90;;;13.50;45.40;;;;;;5055675;28;20123;-71
2021/04/26 08:23:56;;;;;;;2.88;1.00;;;13.70;45.20;;;;;;5055512;28;20052;-71
2021/04/26 08:26:24;;;;;;;3.30;0.77;;;13.80;45.10;;;;;;5073139;28;20028;-72
2021/04/26 08:28:49;;;;;;;5.05;0.93;;;14.30;45.40;;;;;;5055529;28;20438;-70
2021/04/26 08:31:15;;;;;;;2.47;1.08;;;14.40;44.50;;;;;;5072716;28;20032;-62
2021/04/26 08:33:41;;;;;;;3.53;0.65;;;14.70;44.60;;;;;;5073374;28;20033;-71
2021/04/26 08:36:08;;;;;;;4.22;0.95;;;14.90;44.90;;;;;;5054757;28;20036;-71
2021/04/26 08:38:34;;;;;;;2.30;1.27;;;14.30;44.50;;;;;;5073499;28;20473;-71
2021/04/26 08:41:01;;;;;;;6.00;1.30;;;14.90;44.20;;;;;;5073810;28;20031;-71
2021/04/26 08:43:28;;;;;;;3.63;1.25;;;15.20;43.80;;;;;;5073452;28;20059;-70
2021/04/26 08:45:55;;;;;;;6.80;0.90;;;14.20;43.40;;;;;;5054920;28;20027;-72
2021/04/26 08:48:24;;;;;;;4.47;1.65;;;15.10;45.10;;;;;;5072929;28;20215;-70
2021/04/26 08:50:50;;;;;;;2.00;0.90;;;15.70;43.70;;;;;;5073242;28;20024;-69
2021/04/26 08:53:15;;;;;;;3.65;1.45;;;15.80;42.30;;;;;;5054654;28;20488;-70
2021/04/26 08:55:41;;;;;;;2.03;0.85;;;15.70;43.40;;;;;;5073427;28;20040;-72
2021/04/26 08:58:07;;;;;;;2.53;1.10;;;15.50;43.00;;;;;;5072312;28;20177;-70
2021/04/26 09:00:33;;;;;;;3.13;1.00;;;15.00;42.80;;;;;;5054913;28;20086;-70
2021/04/26 09:03:04;;;;;;;4.63;1.23;;;15.40;42.40;;;;;;5054553;28;20063;-70
2021/04/26 09:05:33;;;;;;;3.03;1.10;;;16.10;43.30;;;;;;5054807;28;20025;-70
2021/04/26 09:08:00;;;;;;;5.60;2.00;;;15.80;60.50;;;;;;5055426;28;20086;-79
2021/04/26 09:10:41;;;;;;;3.75;2.00;;;15.80;41.10;;;;;;5055422;28;20029;-74
2021/04/26 09:13:28;;;;;;;3.80;1.52;;;16.60;39.90;;;;;;5055504;28;20115;-71
2021/04/26 09:15:56;;;;;;;3.13;0.68;;;16.20;40.80;;;;;;5060478;28;20056;-71
2021/04/26 09:18:42;;;;;;;1.27;0.50;;;16.50;39.20;;;;;;5091320;28;20028;-71
2021/04/26 09:21:23;;;;;;;3.38;0.68;;;16.80;39.80;;;;;;5090778;28;20034;-71
2021/04/26 09:24:16;;;;;;;2.92;0.85;;;17.40;38.90;;;;;;5091603;28;20472;-71
2021/04/26 09:26:43;;;;;;;5.18;0.75;;;17.90;48.40;;;;;;5083456;28;20473;-70
2021/04/26 09:29:20;;;;;;;5.80;0.57;;;17.50;38.60;;;;;;5092448;28;20021;-70
2021/04/26 09:32:06;;;;;;;1.70;0.50;;;17.70;51.90;;;;;;5091309;28;20081;-70
2021/04/26 09:34:37;;;;;;;7.65;1.73;;;17.50;56.50;;;;;;5092547;28;20430;-49
2021/04/26 09:37:05;;;;;;;2.50;0.85;;;18.30;51.70;;;;;;5089659;28;20059;-72
2021/04/26 09:39:31;;;;;;;3.67;1.92;;;18.90;39.30;;;;;;5086691;28;20162;-70
2021/04/26 09:41:58;;;;;;;3.33;0.50;;;18.80;41.00;;;;;;5085511;28;20055;-69
2021/04/26 09:44:24;;;;;;;4.43;0.70;;;19.30;37.70;;;;;;5091474;28;20066;-70
2021/04/26 09:46:51;;;;;;;1.38;0.45;;;19.40;36.90;;;;;;5092310;28;20059;-70
2021/04/26 09:49:22;;;;;;;2.63;0.70;;;19.50;35.80;;;;;;5091771;28;20105;-71
2021/04/26 09:51:54;;;;;;;3.05;0.60;;;19.40;34.90;;;;;;5085572;28;20036;-71
2021/04/26 09:54:36;;;;;;;4.65;0.57;;;19.40;35.10;;;;;;5091638;28;20055;-71
2021/04/26 09:57:02;;;;;;;3.72;0.80;;;18.20;34.50;;;;;;5092094;28;20085;-70
2021/04/26 09:59:28;;;;;;;3.35;0.40;;;18.50;36.20;;;;;;5090071;28;20299;-70
2021/04/26 10:01:54;;;;;;;2.85;0.45;;;19.00;35.30;;;;;;5090497;28;20031;-71
2021/04/26 10:04:20;;;;;;;2.58;0.50;;;18.90;34.50;;;;;;5089345;28;20039;-71
2021/04/26 10:06:46;;;;;;;5.13;0.50;;;19.00;34.30;;;;;;5090173;28;20032;-70
2021/04/26 10:09:12;;;;;;;12.80;1.17;;;19.20;35.10;;;;;;5089567;28;20433;-70
2021/04/26 10:11:38;;;;;;;16.50;1.10;;;19.70;35.40;;;;;;5090036;28;20077;-69
2021/04/26 10:14:05;;;;;;;4.75;0.65;;;20.10;34.50;;;;;;5090177;28;20028;-70
2021/04/26 10:16:44;;;;;;;10.27;1.05;;;20.20;34.20;;;;;;5081364;28;20048;-70
2021/04/26 10:19:15;;;;;;;3.15;0.75;;;19.70;32.80;;;;;;5070423;28;20127;-69
2021/04/26 10:21:42;;;;;;;4.57;0.50;;;20.10;33.40;;;;;;5070939;28;20028;-69
2021/04/26 10:24:20;;;;;;;1.23;0.40;;;19.50;34.00;;;;;;5052420;28;20382;-69
2021/04/26 10:26:54;;;;;;;1.80;0.40;;;19.90;33.70;;;;;;5053371;28;20039;-69
2021/04/26 10:29:58;;;;;;;1.00;0.38;;;20.10;33.50;;;;;;5051849;28;20077;-69
2021/04/26 10:32:25;;;;;;;2.22;0.25;;;20.20;33.80;;;;;;5067661;28;20032;-69
2021/04/26 10:34:55;;;;;;;4.32;0.82;;;20.40;32.90;;;;;;5052744;28;20028;-68
2021/04/26 10:37:26;;;;;;;0.93;0.50;;;20.70;32.80;;;;;;5069598;28;20377;-68
2021/04/26 10:39:55;;;;;;;5.03;0.85;;;20.00;34.00;;;;;;5051154;28;20115;-69
2021/04/26 10:42:29;;;;;;;1.00;0.30;;;19.50;35.70;;;;;;5051730;28;20127;-69
2021/04/26 10:44:55;;;;;;;1.40;0.57;;;20.10;34.90;;;;;;5069169;28;20370;-69
2021/04/26 10:47:32;;;;;;;5.63;0.40;;;20.40;34.20;;;;;;5070430;28;20031;-70
2021/04/26 10:50:01;;;;;;;1.27;0.30;;;21.00;33.40;;;;;;5052661;28;20378;-69
2021/04/26 10:52:27;;;;;;;1.58;0.40;;;20.50;33.60;;;;;;5051721;28;20040;-69
2021/04/26 10:54:53;;;;;;;3.40;0.45;;;;;;;;;;5052801;28;20077;-69
2021/04/26 10:57:41;;;;;;;0.73;0.40;;;21.40;61.70;;;;;;5051887;28;20511;-70
2021/04/26 11:02:53;;;;;;;1.05;0.38;;;19.00;64.80;;;;;;5070106;28;20112;-70
2021/04/26 11:05:30;;;;;;;2.97;0.40;;;20.20;64.90;;;;;;5069623;28;20036;-70
2021/04/26 11:08:15;;;;;;;3.72;1.05;;;21.10;65.70;;;;;;5052142;28;20455;-72
2021/04/26 11:10:46;;;;;;;1.38;0.30;;;21.20;65.60;;;;;;5051972;28;20453;-69
2021/04/26 11:13:30;;;;;;;3.65;0.35;;;21.40;32.30;;;;;;5069923;28;20040;-69
2021/04/26 11:16:14;;;;;;;7.32;0.43;;;19.80;32.60;;;;;;5054568;28;20072;-67
2021/04/26 11:19:02;;;;;;;1.05;0.50;;;19.80;33.20;;;;;;5070319;28;20189;-67
2021/04/26 11:21:49;;;;;;;1.30;0.85;;;18.80;35.50;;;;;;5069189;28;20138;-68
2021/04/26 11:24:26;;;;;;;0.93;0.32;;;19.20;33.70;;;;;;5069328;28;20449;-69
2021/04/26 11:27:07;;;;;;;1.63;0.40;;;19.60;33.80;;;;;;5052151;28;20143;-68
2021/04/26 11:29:54;;;;;;;2.50;0.50;;;20.00;33.00;;;;;;5069512;28;20060;-68
2021/04/26 11:32:21;;;;;;;2.03;0.40;;;20.90;33.60;;;;;;5033843;28;20438;-69
2021/04/26 11:34:47;;;;;;;0.95;0.52;;;21.50;33.40;;;;;;5052064;28;20469;-69
2021/04/26 11:37:17;;;;;;;3.20;0.60;;;21.70;32.80;;;;;;5069736;28;20063;-68
2021/04/26 11:39:43;;;;;;;2.70;0.77;;;21.90;33.90;;;;;;5070249;28;20036;-69
2021/04/26 11:42:23;;;;;;;1.75;0.20;;;22.00;33.20;;;;;;5051805;28;20028;-70
2021/04/26 11:44:50;;;;;;;0.32;0.30;;;20.80;33.00;;;;;;5045646;28;20033;-72
2021/04/26 11:47:19;;;;;;;2.28;0.40;;;19.80;33.70;;;;;;5051374;28;20086;-69
2021/04/26 11:49:57;;;;;;;2.05;0.40;;;20.30;33.60;;;;;;5052236;28;20024;-70
2021/04/26 11:52:28;;;;;;;4.85;1.38;;;20.90;33.70;;;;;;5051148;28;20025;-68
2021/04/26 11:55:08;;;;;;;3.28;0.90;;;21.50;34.40;;;;;;5051324;28;20032;-70
2021/04/26 11:57:41;;;;;;;3.15;0.30;;;21.50;33.20;;;;;;5051133;28;20135;-71
2021/04/26 12:00:10;;;;;;;2.25;0.47;;;22.00;34.20;;;;;;5049115;28;20474;-71
2021/04/26 12:02:43;;;;;;;3.72;0.47;;;22.00;32.00;;;;;;5051043;28;20059;-69
2021/04/26 12:05:16;;;;;;;2.50;0.50;;;21.40;31.70;;;;;;5068543;28;20362;-68
2021/04/26 12:07:42;;;;;;;2.28;0.47;;;21.40;32.00;;;;;;5068547;28;20120;-73
2021/04/26 12:10:15;;;;;;;7.05;0.93;;;21.50;32.00;;;;;;5068382;28;20025;-70
2021/04/26 12:12:42;;;;;;;2.90;0.80;;;21.80;33.50;;;;;;5068756;28;20031;-69
2021/04/26 12:15:09;;;;;;;2.83;0.70;;;22.20;33.10;;;;;;5045786;28;20122;-69
2021/04/26 12:17:37;;;;;;;2.78;0.35;;;21.90;31.80;;;;;;5068347;28;20143;-70
2021/04/26 12:20:29;;;;;;;2.47;0.30;;;22.10;32.40;;;;;;5068899;28;20032;-69
2021/04/26 12:23:04;;;;;;;1.73;0.60;;;22.80;32.20;;;;;;5045713;28;20033;-69
2021/04/26 12:25:39;;;;;;;2.38;0.57;;;23.00;34.80;;;;;;5049965;28;20035;-71
2021/04/26 12:28:07;;;;;;;4.13;0.40;;;22.80;33.20;;;;;;5050240;28;20969;-68
2021/04/26 12:30:40;;;;;;;1.38;0.43;;;22.80;34.40;;;;;;5066123;28;20036;-69
2021/04/26 12:33:26;;;;;;;1.50;0.73;;;22.80;33.70;;;;;;5050474;28;20035;-68
2021/04/26 12:35:53;;;;;;;3.03;0.57;;;22.30;33.40;;;;;;5050193;28;20043;-69
2021/04/26 12:38:28;;;;;;;3.08;0.40;;;22.30;32.20;;;;;;5067219;28;20039;-70
2021/04/26 12:40:57;;;;;;;3.00;0.50;;;22.40;32.00;;;;;;5050706;28;20033;-69
2021/04/26 12:43:37;;;;;;;2.00;0.70;;;22.80;32.40;;;;;;5051671;28;20043;-68
2021/04/26 12:46:14;;;;;;;2.05;0.40;;;23.00;32.40;;;;;;5071676;28;20466;-70
2021/04/26 12:48:41;;;;;;;0.85;0.60;;;23.00;33.50;;;;;;5034796;28;20398;-71
2021/04/26 12:51:08;;;;;;;2.00;0.80;;;23.00;31.20;;;;;;5053922;28;20035;-67
2021/04/26 12:53:38;;;;;;;7.10;1.65;;;22.90;31.40;;;;;;5053132;28;20040;-68
2021/04/26 12:56:04;;;;;;;5.32;1.83;;;23.30;31.70;;;;;;5054164;28;20025;-71
2021/04/26 12:58:32;;;;;;;1.63;0.65;;;23.50;31.40;;;;;;5051869;28;20032;-70
2021/04/26 13:01:12;;;;;;;2.80;1.00;;;23.40;31.20;;;;;;5053398;28;20024;-69
2021/04/26 13:03:41;;;;;;;2.30;0.30;;;23.70;36.20;;;;;;5053753;28;20033;-68